Time;durP1;ratioP1;P1;durP2;ratioP2;P2;SDS_P1;SDS_P2;PMS_P1;PMS_P2;Temp;Humidity;BMP_temperature;BMP_pressure;BME280_temperature;BME280_humidity;BME280_pressure;Samples;Min_cycle;Max_cycle;Signal;HPM_P1;HPM_P2
2021/11/20 00:01:10;;;;;;;28.97;18.10;;;12.20;99.90;;;;;;5032815;28;20522;-80
2021/11/20 00:03:38;;;;;;;30.90;19.63;;;12.20;99.90;;;;;;5032453;28;20287;-80
2021/11/20 00:06:05;;;;;;;31.00;17.73;;;12.20;99.90;;;;;;5031578;28;20411;-80
2021/11/20 00:08:31;;;;;;;27.43;16.93;;;12.20;99.90;;;;;;5031373;28;20442;-81
2021/11/20 00:11:00;;;;;;;32.10;18.17;;;12.20;99.90;;;;;;5031748;28;20436;-81
2021/11/20 00:13:26;;;;;;;27.70;17.50;;;12.30;99.90;;;;;;5032106;28;20176;-80
2021/11/20 00:15:55;;;;;;;28.03;16.60;;;12.30;99.90;;;;;;5032484;28;20833;-80
2021/11/20 00:18:22;;;;;;;32.43;19.90;;;12.20;99.90;;;;;;5032350;28;20423;-80
2021/11/20 00:20:55;;;;;;;32.77;19.23;;;12.20;99.90;;;;;;5032202;28;20626;-81
2021/11/20 00:23:26;;;;;;;32.20;20.93;;;12.10;99.90;;;;;;5032139;28;20438;-81
2021/11/20 00:25:55;;;;;;;30.70;18.23;;;12.00;99.90;;;;;;5031021;28;20450;-80
2021/11/20 00:28:31;;;;;;;34.87;19.47;;;12.00;99.90;;;;;;5032297;28;20419;-81
2021/11/20 00:30:58;;;;;;;35.03;20.00;;;12.10;99.90;;;;;;5032095;28;20439;-80
2021/11/20 00:33:29;;;;;;;36.30;21.70;;;12.10;99.90;;;;;;5033173;28;20498;-81
2021/11/20 00:35:57;;;;;;;33.10;21.53;;;12.10;99.90;;;;;;5033646;28;20493;-80
2021/11/20 00:38:24;;;;;;;34.00;21.40;;;12.10;99.90;;;;;;5031713;28;20431;-81
2021/11/20 00:40:53;;;;;;;43.47;20.27;;;12.10;99.90;;;;;;5032670;28;20415;-80
2021/11/20 00:43:20;;;;;;;36.97;21.30;;;12.10;99.90;;;;;;5031558;28;20418;-81
2021/11/20 00:45:46;;;;;;;32.20;19.97;;;12.10;99.90;;;;;;5031336;28;20415;-80
2021/11/20 00:48:13;;;;;;;30.30;19.00;;;12.20;99.90;;;;;;5031250;28;20407;-81
2021/11/20 00:50:42;;;;;;;29.97;19.57;;;12.20;99.90;;;;;;5032561;28;20411;-81
2021/11/20 00:53:08;;;;;;;34.97;21.60;;;12.20;99.90;;;;;;5032386;28;20509;-80
2021/11/20 00:55:34;;;;;;;36.53;20.80;;;12.20;99.90;;;;;;5032532;28;20826;-81
2021/11/20 00:58:01;;;;;;;34.27;20.43;;;12.20;99.90;;;;;;5032689;28;20408;-81
2021/11/20 01:00:30;;;;;;;37.87;21.57;;;12.20;99.90;;;;;;5032545;28;20176;-80
2021/11/20 01:02:57;;;;;;;33.50;20.37;;;12.20;99.90;;;;;;5031846;28;20423;-81
2021/11/20 01:05:23;;;;;;;31.80;20.33;;;12.30;99.90;;;;;;5032795;28;20784;-80
2021/11/20 01:07:49;;;;;;;34.80;21.63;;;12.20;99.90;;;;;;5032509;28;20422;-80
2021/11/20 01:10:22;;;;;;;34.00;23.30;;;12.30;99.90;;;;;;5032747;28;20223;-80
2021/11/20 01:12:48;;;;;;;30.43;20.57;;;12.30;99.90;;;;;;5030567;28;20443;-80
2021/11/20 01:15:19;;;;;;;35.23;21.40;;;12.30;99.90;;;;;;5031917;28;20984;-80
2021/11/20 01:17:45;;;;;;;36.97;21.57;;;12.30;99.90;;;;;;5032115;28;20956;-80
2021/11/20 01:20:11;;;;;;;36.37;23.23;;;12.30;99.90;;;;;;5032317;28;20411;-80
2021/11/20 01:22:37;;;;;;;32.67;19.90;;;12.30;99.90;;;;;;5032474;28;20933;-80
2021/11/20 01:25:04;;;;;;;35.60;20.47;;;12.30;99.90;;;;;;5034688;28;20422;-80
2021/11/20 01:27:29;;;;;;;32.90;21.87;;;12.30;99.90;;;;;;5035895;28;20561;-81
2021/11/20 01:29:55;;;;;;;32.37;21.70;;;12.20;99.90;;;;;;5035881;28;20426;-80
2021/11/20 01:32:21;;;;;;;33.80;21.40;;;12.20;99.90;;;;;;5035779;28;20196;-80
2021/11/20 01:34:47;;;;;;;33.93;21.73;;;12.10;99.90;;;;;;5035957;28;20454;-80
2021/11/20 01:37:15;;;;;;;39.70;22.60;;;12.20;99.90;;;;;;5035827;28;20172;-80
2021/11/20 01:39:42;;;;;;;38.13;21.90;;;12.20;99.90;;;;;;5035550;28;20168;-81
2021/11/20 01:42:19;;;;;;;39.60;23.90;;;12.10;99.90;;;;;;5035428;28;20452;-81
2021/11/20 01:44:55;;;;;;;31.77;20.30;;;12.10;99.90;;;;;;5035308;28;20514;-80
2021/11/20 01:47:20;;;;;;;33.13;21.23;;;12.10;99.90;;;;;;5034299;28;20976;-81
2021/11/20 01:50:07;;;;;;;44.70;21.47;;;12.10;99.90;;;;;;5034194;28;20427;-81
2021/11/20 01:52:52;;;;;;;35.57;21.37;;;12.10;99.90;;;;;;5035114;28;20589;-80
2021/11/20 01:55:42;;;;;;;35.57;21.50;;;12.10;99.90;;;;;;5035248;28;20454;-80
2021/11/20 01:58:12;;;;;;;34.27;21.30;;;12.10;99.90;;;;;;5035505;28;20421;-81
2021/11/20 02:00:47;;;;;;;36.90;21.70;;;12.20;99.90;;;;;;5033881;28;20403;-81
2021/11/20 02:03:34;;;;;;;37.10;22.37;;;12.10;99.90;;;;;;5033530;28;20790;-81
2021/11/20 02:06:11;;;;;;;38.00;20.80;;;12.00;99.90;;;;;;5033772;28;20407;-80
2021/11/20 02:08:43;;;;;;;36.87;23.37;;;12.00;99.90;;;;;;5033722;28;20468;-80
2021/11/20 02:11:28;;;;;;;36.63;21.07;;;12.00;99.90;;;;;;5033796;28;20783;-80
2021/11/20 02:13:55;;;;;;;38.90;21.90;;;12.10;99.90;;;;;;5033126;28;20466;-80
2021/11/20 02:16:31;;;;;;;37.60;22.20;;;12.00;99.90;;;;;;5033780;28;21110;-81
2021/11/20 02:19:03;;;;;;;40.47;21.17;;;12.10;99.90;;;;;;5034881;28;20779;-80
2021/11/20 02:21:54;;;;;;;34.93;21.43;;;12.10;99.90;;;;;;5033656;28;20953;-80
2021/11/20 02:24:20;;;;;;;38.13;22.77;;;12.10;99.90;;;;;;5034628;28;20902;-80
2021/11/20 02:26:45;;;;;;;39.70;20.97;;;12.20;99.90;;;;;;5034689;28;20407;-80
2021/11/20 02:29:13;;;;;;;41.53;22.53;;;12.20;99.90;;;;;;5033524;28;20615;-81
2021/11/20 02:31:49;;;;;;;33.13;21.07;;;12.20;99.90;;;;;;5034356;28;20210;-81
2021/11/20 02:34:16;;;;;;;34.37;20.27;;;12.20;99.90;;;;;;5033593;28;20471;-81
2021/11/20 02:36:42;;;;;;;30.07;19.33;;;12.20;99.90;;;;;;5033598;28;20785;-80
2021/11/20 02:39:18;;;;;;;30.70;19.30;;;12.20;99.90;;;;;;5038580;28;20502;-82
2021/11/20 02:41:47;;;;;;;35.30;20.13;;;12.30;99.90;;;;;;5040100;28;20581;-82
2021/11/20 02:44:15;;;;;;;34.03;20.77;;;12.30;99.90;;;;;;5041688;28;20450;-81
2021/11/20 02:46:44;;;;;;;38.13;20.03;;;12.30;99.90;;;;;;5040451;28;20427;-81
2021/11/20 02:49:11;;;;;;;34.80;20.13;;;12.30;99.90;;;;;;5041329;28;20416;-82
2021/11/20 02:51:43;;;;;;;37.10;19.67;;;12.30;99.90;;;;;;5038803;28;20605;-81
2021/11/20 02:54:14;;;;;;;38.53;20.73;;;12.30;99.90;;;;;;5040952;28;20465;-81
2021/11/20 02:56:43;;;;;;;35.60;19.33;;;12.30;99.90;;;;;;5040842;28;20462;-80
2021/11/20 02:59:10;;;;;;;33.93;19.30;;;12.40;99.90;;;;;;5039067;28;20419;-82
2021/11/20 03:01:38;;;;;;;36.37;20.27;;;12.40;99.90;;;;;;5039546;28;20449;-82
2021/11/20 03:04:07;;;;;;;36.60;20.67;;;12.30;99.90;;;;;;5039695;28;20415;-81
2021/11/20 03:06:34;;;;;;;34.90;19.13;;;12.30;99.90;;;;;;5040312;28;20415;-81
2021/11/20 03:09:00;;;;;;;32.77;19.10;;;12.40;99.90;;;;;;5039917;28;20473;-81
2021/11/20 03:11:27;;;;;;;33.53;20.17;;;12.30;99.90;;;;;;5039262;28;20522;-81
2021/11/20 03:13:55;;;;;;;35.13;19.13;;;12.40;99.90;;;;;;5038836;28;20459;-81
2021/11/20 03:16:22;;;;;;;31.77;20.10;;;12.40;99.90;;;;;;5039580;28;20419;-80
2021/11/20 03:18:47;;;;;;;40.57;21.47;;;12.40;99.90;;;;;;5039634;28;20438;-80
2021/11/20 03:21:14;;;;;;;34.63;19.20;;;12.30;99.90;;;;;;5039423;28;20435;-81
2021/11/20 03:23:44;;;;;;;30.27;18.93;;;12.40;99.90;;;;;;5038068;28;20199;-82
2021/11/20 03:26:10;;;;;;;29.20;17.90;;;12.40;99.90;;;;;;5038558;28;20423;-81
2021/11/20 03:28:35;;;;;;;33.60;19.50;;;12.40;99.90;;;;;;5038540;28;20416;-80
2021/11/20 03:31:02;;;;;;;34.70;19.70;;;12.30;99.90;;;;;;5038583;28;20576;-81
2021/11/20 03:33:28;;;;;;;39.13;20.40;;;12.30;99.90;;;;;;5037965;28;20655;-81
2021/11/20 03:35:54;;;;;;;36.37;20.20;;;12.30;99.90;;;;;;5038353;28;20969;-81
2021/11/20 03:38:19;;;;;;;38.53;20.90;;;12.30;99.90;;;;;;5037882;28;20773;-80
2021/11/20 03:40:45;;;;;;;36.90;20.83;;;12.30;99.90;;;;;;5038135;28;20422;-81
2021/11/20 03:43:11;;;;;;;31.40;18.60;;;12.30;99.90;;;;;;5037399;28;20242;-82
2021/11/20 03:45:38;;;;;;;34.60;19.27;;;12.30;99.90;;;;;;5037910;28;20188;-80
2021/11/20 03:48:06;;;;;;;35.43;20.60;;;12.30;99.90;;;;;;5036423;28;20184;-80
2021/11/20 03:50:32;;;;;;;33.20;20.13;;;12.30;99.90;;;;;;5037808;28;20930;-81
2021/11/20 03:52:58;;;;;;;34.97;19.13;;;12.30;99.90;;;;;;5037226;28;20442;-80
2021/11/20 03:55:28;;;;;;;38.70;21.40;;;12.30;99.90;;;;;;5037234;28;20467;-80
2021/11/20 03:57:54;;;;;;;33.33;19.13;;;12.30;99.90;;;;;;5036857;28;20789;-80
2021/11/20 04:00:23;;;;;;;34.73;20.27;;;12.30;99.90;;;;;;5037272;28;20434;-80
2021/11/20 04:02:49;;;;;;;32.77;19.07;;;12.30;99.90;;;;;;5036865;28;20494;-80
2021/11/20 04:05:17;;;;;;;33.13;18.83;;;12.20;99.90;;;;;;5037549;28;20469;-81
2021/11/20 04:07:43;;;;;;;36.17;19.37;;;12.20;99.90;;;;;;5037699;28;20223;-80
2021/11/20 04:10:15;;;;;;;34.47;20.90;;;12.30;99.90;;;;;;5035371;28;20427;-81
2021/11/20 04:12:41;;;;;;;33.47;18.80;;;12.30;99.90;;;;;;5036249;28;20268;-80
2021/11/20 04:15:10;;;;;;;37.70;20.80;;;12.30;99.90;;;;;;5036142;28;20810;-82
2021/11/20 04:17:36;;;;;;;29.07;17.70;;;12.20;99.90;;;;;;5036843;28;20419;-81
2021/11/20 04:20:05;;;;;;;36.20;20.67;;;12.20;99.90;;;;;;5036317;28;20415;-80
2021/11/20 04:22:30;;;;;;;33.30;19.27;;;12.20;99.90;;;;;;5033649;28;20207;-81
2021/11/20 04:24:56;;;;;;;31.57;17.77;;;12.20;99.90;;;;;;5033263;28;20469;-80
2021/11/20 04:27:22;;;;;;;29.40;17.60;;;12.20;99.90;;;;;;5033134;28;20181;-80
2021/11/20 04:29:47;;;;;;;30.10;18.30;;;12.20;99.90;;;;;;5033115;28;20593;-80
2021/11/20 04:32:13;;;;;;;33.33;17.83;;;12.20;99.90;;;;;;5032602;28;20204;-81
2021/11/20 04:34:38;;;;;;;37.37;19.00;;;12.10;99.90;;;;;;5032759;28;20330;-80
2021/11/20 04:37:04;;;;;;;32.40;17.60;;;12.10;99.90;;;;;;5032880;28;20211;-80
2021/11/20 04:39:30;;;;;;;29.10;17.43;;;12.20;99.90;;;;;;5032534;28;20180;-80
2021/11/20 04:41:55;;;;;;;29.03;17.97;;;12.10;99.90;;;;;;5032526;28;20435;-80
2021/11/20 04:44:21;;;;;;;30.67;17.33;;;12.10;99.90;;;;;;5032707;28;20259;-81
2021/11/20 04:46:47;;;;;;;28.77;16.60;;;12.10;99.90;;;;;;5032718;28;20188;-80
2021/11/20 04:49:12;;;;;;;29.23;16.07;;;12.10;99.90;;;;;;5032482;28;20234;-81
2021/11/20 04:51:38;;;;;;;32.13;17.30;;;12.00;99.90;;;;;;5031741;28;20215;-80
2021/11/20 04:54:04;;;;;;;34.77;17.50;;;12.10;99.90;;;;;;5030562;28;20214;-81
2021/11/20 04:56:30;;;;;;;34.73;16.67;;;12.10;99.90;;;;;;5032168;28;20243;-81
2021/11/20 04:58:56;;;;;;;32.80;17.20;;;12.10;99.90;;;;;;5031813;28;20416;-81
2021/11/20 05:01:23;;;;;;;33.60;16.60;;;12.10;99.90;;;;;;5032243;28;20196;-81
2021/11/20 05:03:51;;;;;;;29.20;16.27;;;12.00;99.90;;;;;;5031803;28;21010;-80
2021/11/20 05:06:19;;;;;;;28.93;16.80;;;12.00;99.90;;;;;;5030809;28;20430;-80
2021/11/20 05:08:45;;;;;;;31.10;15.63;;;12.00;99.90;;;;;;5032503;28;20423;-81
2021/11/20 05:11:12;;;;;;;24.30;15.23;;;11.90;99.90;;;;;;5032012;28;20442;-80
2021/11/20 05:13:38;;;;;;;32.20;18.37;;;11.90;99.90;;;;;;5031644;28;20184;-80
2021/11/20 05:16:04;;;;;;;29.03;15.90;;;11.90;99.90;;;;;;5031676;28;20407;-81
2021/11/20 05:18:30;;;;;;;28.57;15.10;;;11.90;99.90;;;;;;5032010;28;20419;-80
2021/11/20 05:21:00;;;;;;;29.70;16.80;;;12.00;99.90;;;;;;5031723;28;20823;-80
2021/11/20 05:23:30;;;;;;;24.43;15.30;;;12.00;99.90;;;;;;5031435;28;20242;-81
2021/11/20 05:25:56;;;;;;;25.33;15.10;;;12.00;99.90;;;;;;5031616;28;20438;-80
2021/11/20 05:28:22;;;;;;;25.67;15.10;;;12.00;99.90;;;;;;5031736;28;20423;-80
2021/11/20 05:30:50;;;;;;;27.57;15.87;;;12.00;99.90;;;;;;5031556;28;20911;-80
2021/11/20 05:33:35;;;;;;;28.30;15.93;;;12.00;99.90;;;;;;5031232;28;20888;-80
2021/11/20 05:36:02;;;;;;;25.97;14.90;;;12.10;99.90;;;;;;5031603;28;20557;-81
2021/11/20 05:38:29;;;;;;;29.20;16.90;;;12.10;99.90;;;;;;5031425;28;20412;-80
2021/11/20 05:40:55;;;;;;;23.93;14.30;;;12.10;99.90;;;;;;5031571;28;20445;-81
2021/11/20 05:43:21;;;;;;;30.60;17.27;;;12.10;99.90;;;;;;5031020;28;20419;-81
2021/11/20 05:46:03;;;;;;;23.50;13.30;;;12.20;99.90;;;;;;5032368;28;20419;-80
2021/11/20 05:48:29;;;;;;;24.63;13.70;;;12.20;99.90;;;;;;5033797;28;20185;-80
2021/11/20 05:50:54;;;;;;;23.80;13.60;;;12.20;99.90;;;;;;5033214;28;20533;-80
2021/11/20 05:53:23;;;;;;;26.20;15.00;;;12.20;99.90;;;;;;5042911;22;21064;-81
2021/11/20 05:55:51;;;;;;;29.20;15.23;;;12.20;99.90;;;;;;5046713;28;20710;-80
2021/11/20 05:58:18;;;;;;;25.30;14.70;;;12.20;99.90;;;;;;5030012;28;20411;-80
2021/11/20 06:00:47;;;;;;;30.13;14.83;;;12.20;99.90;;;;;;5031199;28;20756;-81
2021/11/20 06:03:14;;;;;;;28.60;14.53;;;12.20;99.90;;;;;;5029377;28;20480;-80
2021/11/20 06:05:41;;;;;;;34.10;15.53;;;12.20;99.90;;;;;;5030147;28;20921;-80
2021/11/20 06:08:07;;;;;;;26.23;13.80;;;12.20;99.90;;;;;;5031137;28;21064;-81
2021/11/20 06:10:35;;;;;;;24.30;13.63;;;12.20;99.90;;;;;;5034934;28;20422;-81
2021/11/20 06:13:04;;;;;;;25.20;14.23;;;12.20;99.90;;;;;;5034573;28;20443;-81
2021/11/20 06:15:29;;;;;;;24.53;14.47;;;12.20;99.90;;;;;;5033981;28;20504;-82
2021/11/20 06:17:55;;;;;;;22.70;13.83;;;12.20;99.90;;;;;;5034443;28;20808;-82
2021/11/20 06:20:20;;;;;;;28.60;13.90;;;12.20;99.90;;;;;;5034406;28;20179;-81
2021/11/20 06:22:46;;;;;;;24.70;13.87;;;12.20;99.90;;;;;;5036055;28;20671;-80
2021/11/20 06:25:12;;;;;;;26.83;14.60;;;12.20;99.90;;;;;;5034439;28;20181;-82
2021/11/20 06:27:38;;;;;;;22.57;13.37;;;12.20;99.90;;;;;;5034691;28;20203;-80
2021/11/20 06:30:13;;;;;;;25.83;13.70;;;12.20;99.90;;;;;;5036067;28;20414;-80
2021/11/20 06:32:39;;;;;;;24.30;13.87;;;12.20;99.90;;;;;;5035723;28;20441;-80
2021/11/20 06:35:10;;;;;;;21.23;13.47;;;12.20;99.90;;;;;;5035691;28;20454;-80
2021/11/20 06:37:37;;;;;;;22.17;13.47;;;12.20;99.90;;;;;;5034275;28;20526;-79
2021/11/20 06:40:03;;;;;;;23.60;14.83;;;12.20;99.90;;;;;;5035565;28;20783;-80
2021/11/20 06:42:29;;;;;;;25.10;14.13;;;12.10;99.90;;;;;;5035250;28;20788;-80
2021/11/20 06:44:54;;;;;;;25.87;14.87;;;12.10;99.90;;;;;;5035002;28;20410;-80
2021/11/20 06:47:20;;;;;;;27.23;13.97;;;12.10;99.90;;;;;;5035702;28;20180;-80
2021/11/20 06:49:45;;;;;;;23.97;14.10;;;12.10;99.90;;;;;;5033727;28;20199;-82
2021/11/20 06:52:11;;;;;;;24.27;13.20;;;12.00;99.90;;;;;;5035598;28;20186;-80
2021/11/20 06:54:37;;;;;;;24.30;14.20;;;12.00;99.90;;;;;;5033425;28;20679;-80
2021/11/20 06:57:08;;;;;;;22.97;13.43;;;12.00;99.90;;;;;;5034858;28;20255;-81
2021/11/20 07:02:12;;;;;;;23.10;13.07;;;11.90;99.90;;;;;;5034229;28;20945;-80
2021/11/20 07:04:37;;;;;;;23.00;13.13;;;12.00;99.90;;;;;;5032306;28;20477;-80
2021/11/20 07:07:09;;;;;;;21.77;13.20;;;12.00;99.90;;;;;;5034470;28;20906;-81
2021/11/20 07:09:35;;;;;;;21.30;13.30;;;12.00;99.90;;;;;;5034352;28;20164;-80
2021/11/20 07:12:02;;;;;;;23.63;13.43;;;12.00;99.90;;;;;;5034220;28;20485;-80
2021/11/20 07:14:27;;;;;;;26.73;13.50;;;12.00;99.90;;;;;;5034228;28;20462;-81
2021/11/20 07:16:53;;;;;;;26.00;13.90;;;12.00;99.90;;;;;;5034050;28;20477;-79
2021/11/20 07:19:20;;;;;;;22.27;14.13;;;12.00;99.90;;;;;;5032657;28;20180;-80
2021/11/20 07:21:45;;;;;;;20.40;13.27;;;12.00;99.90;;;;;;5032798;28;20181;-80
2021/11/20 07:24:17;;;;;;;24.33;13.80;;;12.00;99.90;;;;;;5031981;28;20812;-80
2021/11/20 07:26:44;;;;;;;19.77;12.87;;;12.10;99.90;;;;;;5032423;28;20214;-80
2021/11/20 07:29:11;;;;;;;22.20;13.43;;;12.00;99.90;;;;;;5032042;28;20427;-80
2021/11/20 07:31:37;;;;;;;23.50;13.63;;;12.10;99.90;;;;;;5031862;28;20979;-80
2021/11/20 07:34:04;;;;;;;23.77;13.90;;;12.10;99.90;;;;;;5032120;28;20557;-81
2021/11/20 07:36:35;;;;;;;20.73;12.93;;;12.10;99.90;;;;;;5033460;28;20460;-80
2021/11/20 07:39:03;;;;;;;24.30;13.87;;;12.20;99.90;;;;;;5032229;28;20461;-79
2021/11/20 07:41:28;;;;;;;24.27;13.07;;;12.20;99.90;;;;;;5033507;28;21032;-80
2021/11/20 07:43:55;;;;;;;22.23;13.07;;;12.10;99.90;;;;;;5031797;28;20526;-79
2021/11/20 07:46:21;;;;;;;23.83;13.47;;;12.10;99.90;;;;;;5033283;28;20183;-79
2021/11/20 07:48:47;;;;;;;24.20;13.50;;;12.10;99.90;;;;;;5034147;28;20411;-79
2021/11/20 07:51:14;;;;;;;20.83;12.67;;;12.10;99.90;;;;;;5031799;28;20666;-80
2021/11/20 07:53:42;;;;;;;20.83;12.00;;;12.10;99.90;;;;;;5032773;28;20455;-81
2021/11/20 07:56:09;;;;;;;21.73;13.77;;;12.10;99.90;;;;;;5031861;28;20930;-80
2021/11/20 07:58:36;;;;;;;25.53;13.77;;;12.10;99.90;;;;;;5033002;28;20847;-80
2021/11/20 08:01:03;;;;;;;24.80;15.07;;;12.10;99.90;;;;;;5031738;28;20424;-80
2021/11/20 08:03:28;;;;;;;23.10;14.43;;;12.00;99.90;;;;;;5031403;28;20526;-80
2021/11/20 08:05:55;;;;;;;21.07;13.67;;;12.00;99.90;;;;;;5031553;28;20470;-80
2021/11/20 08:08:21;;;;;;;21.97;13.67;;;12.00;99.90;;;;;;5031782;28;20215;-79
2021/11/20 08:10:50;;;;;;;21.13;13.30;;;11.90;99.90;;;;;;5033102;28;20457;-79
2021/11/20 08:13:17;;;;;;;19.73;12.87;;;11.90;99.90;;;;;;5032332;28;20434;-80
2021/11/20 08:15:44;;;;;;;21.40;12.97;;;11.90;99.90;;;;;;5032926;28;20466;-80
2021/11/20 08:18:10;;;;;;;21.10;13.47;;;12.00;99.90;;;;;;5031462;28;20858;-80
2021/11/20 08:20:38;;;;;;;26.30;14.03;;;12.00;99.90;;;;;;5031338;28;20419;-80
2021/11/20 08:23:06;;;;;;;22.03;14.00;;;12.00;99.90;;;;;;5032271;28;20196;-79
2021/11/20 08:25:32;;;;;;;23.80;13.80;;;12.00;99.90;;;;;;5032577;28;20414;-81
2021/11/20 08:27:58;;;;;;;21.93;12.13;;;12.00;99.90;;;;;;5032847;28;20429;-80
2021/11/20 08:30:27;;;;;;;22.70;13.00;;;12.00;99.90;;;;;;5031320;28;20443;-80
2021/11/20 08:32:55;;;;;;;22.10;12.97;;;12.00;99.90;;;;;;5029982;28;20532;-80
2021/11/20 08:35:21;;;;;;;22.97;13.20;;;12.10;99.90;;;;;;5030996;28;20502;-80
2021/11/20 08:37:47;;;;;;;22.37;13.00;;;12.10;99.90;;;;;;5031118;28;20509;-80
2021/11/20 08:40:18;;;;;;;19.57;12.43;;;12.10;99.90;;;;;;5031200;28;20886;-81
2021/11/20 08:42:45;;;;;;;20.63;12.73;;;12.10;99.90;;;;;;5032330;28;20199;-80
2021/11/20 08:45:17;;;;;;;20.30;12.93;;;12.10;99.90;;;;;;5032223;28;20427;-80
2021/11/20 08:47:44;;;;;;;23.90;13.53;;;12.10;99.90;;;;;;5032316;28;20944;-80
2021/11/20 08:50:13;;;;;;;19.63;12.53;;;12.10;99.90;;;;;;5032241;28;20426;-80
2021/11/20 08:52:40;;;;;;;19.70;12.90;;;12.10;99.90;;;;;;5031864;28;20482;-80
2021/11/20 08:55:08;;;;;;;24.70;14.20;;;12.20;99.90;;;;;;5036745;28;20459;-83
2021/11/20 08:57:34;;;;;;;26.23;13.87;;;12.10;99.90;;;;;;5036901;28;20445;-82
2021/11/20 08:59:59;;;;;;;19.67;12.40;;;12.10;99.90;;;;;;5037428;28;20423;-82
2021/11/20 09:02:35;;;;;;;19.67;12.10;;;12.10;99.90;;;;;;5036142;28;20449;-82
2021/11/20 09:05:21;;;;;;;27.37;14.47;;;12.10;99.90;;;;;;5036571;28;20187;-82
2021/11/20 09:07:55;;;;;;;24.70;13.10;;;12.20;99.90;;;;;;5036358;28;20799;-82
2021/11/20 09:10:39;;;;;;;21.00;12.80;;;12.20;99.90;;;;;;5035587;28;20442;-81
2021/11/20 09:13:20;;;;;;;22.67;13.80;;;12.20;99.90;;;;;;5037154;28;20442;-82
2021/11/20 09:15:55;;;;;;;21.53;13.50;;;12.10;99.90;;;;;;5037368;28;20523;-82
2021/11/20 09:18:22;;;;;;;26.37;13.93;;;12.10;99.90;;;;;;5037149;28;20421;-82
2021/11/20 09:20:51;;;;;;;21.17;13.07;;;12.20;99.90;;;;;;5035275;28;20427;-82
2021/11/20 09:23:18;;;;;;;20.47;12.10;;;12.20;99.90;;;;;;5036744;28;20458;-81
2021/11/20 09:25:44;;;;;;;19.23;12.00;;;12.20;99.90;;;;;;5037046;28;20506;-82
2021/11/20 09:28:12;;;;;;;22.17;11.47;;;12.20;99.90;;;;;;5035314;28;20840;-82
2021/11/20 09:30:43;;;;;;;20.40;12.10;;;12.30;99.90;;;;;;5035065;28;20463;-82
2021/11/20 09:33:09;;;;;;;22.40;10.70;;;12.30;99.90;;;;;;5035796;28;20811;-82
2021/11/20 09:35:35;;;;;;;21.93;11.17;;;12.40;99.90;;;;;;5034672;28;20466;-82
2021/11/20 09:38:01;;;;;;;18.37;10.60;;;12.30;99.90;;;;;;5038604;28;20415;-85
2021/11/20 09:40:30;;;;;;;19.60;11.03;;;12.40;99.90;;;;;;5035117;28;20411;-81
2021/11/20 09:43:00;;;;;;;18.87;10.13;;;12.40;99.90;;;;;;5027935;28;20457;-82
2021/11/20 09:45:34;;;;;;;16.97;10.40;;;12.40;99.90;;;;;;5034450;28;20443;-82
2021/11/20 09:48:13;;;;;;;16.13;10.03;;;12.40;99.90;;;;;;5032448;28;20447;-83
2021/11/20 09:50:44;;;;;;;17.07;10.03;;;12.40;99.90;;;;;;5033420;28;20435;-84
2021/11/20 09:53:11;;;;;;;17.40;10.17;;;12.50;99.90;;;;;;5037943;28;20893;-83
2021/11/20 09:55:46;;;;;;;14.00;9.40;;;12.40;99.90;;;;;;5040493;28;20466;-82
2021/11/20 09:58:29;;;;;;;13.90;10.13;;;12.50;99.90;;;;;;5038887;28;20438;-82
2021/11/20 10:01:04;;;;;;;17.60;9.50;;;12.50;99.90;;;;;;5038305;28;20431;-81
2021/11/20 10:03:42;;;;;;;14.07;9.90;;;12.60;99.90;;;;;;5035984;28;20437;-80
2021/11/20 10:06:40;;;;;;;17.17;10.30;;;12.50;99.90;;;;;;5036910;28;20411;-79
2021/11/20 10:09:15;;;;;;;14.10;9.47;;;12.50;99.90;;;;;;5035651;28;20438;-81
2021/11/20 10:12:14;;;;;;;14.23;9.37;;;12.50;99.90;;;;;;5034783;28;20419;-81
2021/11/20 10:15:04;;;;;;;14.67;9.20;;;12.50;99.90;;;;;;5035418;28;20520;-80
2021/11/20 10:17:39;;;;;;;13.60;9.30;;;12.50;99.90;;;;;;5035240;28;20422;-79
2021/11/20 10:20:25;;;;;;;12.83;8.87;;;12.60;99.90;;;;;;5033533;28;20954;-80
2021/11/20 10:22:54;;;;;;;13.50;9.43;;;12.60;99.90;;;;;;5032935;28;20447;-80
2021/11/20 10:25:35;;;;;;;14.30;8.70;;;12.60;99.90;;;;;;5034325;28;20419;-80
2021/11/20 10:28:12;;;;;;;15.77;8.87;;;12.60;99.90;;;;;;5034485;28;20823;-80
2021/11/20 10:30:51;;;;;;;15.93;10.63;;;12.60;99.90;;;;;;5033228;28;20422;-80
2021/11/20 10:33:20;;;;;;;13.10;9.80;;;12.70;99.90;;;;;;5033897;28;20943;-80
2021/11/20 10:36:12;;;;;;;13.60;9.97;;;12.60;99.90;;;;;;5034374;28;20826;-80
2021/11/20 10:39:09;;;;;;;12.97;9.97;;;12.60;99.90;;;;;;5034375;28;20407;-80
2021/11/20 10:41:54;;;;;;;16.77;9.53;;;12.60;99.90;;;;;;5033712;28;20906;-80
2021/11/20 10:44:29;;;;;;;17.13;9.40;;;12.60;99.90;;;;;;5034027;28;20438;-79
2021/11/20 10:47:10;;;;;;;13.20;9.27;;;12.60;99.90;;;;;;5034127;28;20414;-79
2021/11/20 10:49:38;;;;;;;12.47;9.27;;;12.50;99.90;;;;;;5034066;28;20427;-80
2021/11/20 10:52:34;;;;;;;12.87;8.77;;;12.50;99.90;;;;;;5033839;28;20464;-79
2021/11/20 10:55:26;;;;;;;11.73;8.73;;;12.40;99.90;;;;;;5033232;28;20705;-79
2021/11/20 10:58:03;;;;;;;11.80;9.30;;;12.50;99.90;;;;;;5032215;28;20515;-79
2021/11/20 11:00:46;;;;;;;12.77;9.73;;;12.30;99.90;;;;;;5032569;28;20427;-80
2021/11/20 11:03:35;;;;;;;13.30;8.67;;;12.40;99.90;;;;;;5032090;28;20481;-80
2021/11/20 11:06:32;;;;;;;14.70;9.80;;;12.40;99.90;;;;;;5033888;28;20501;-80
2021/11/20 11:09:00;;;;;;;14.20;9.93;;;12.40;99.90;;;;;;5032696;28;20427;-79
2021/11/20 11:11:42;;;;;;;14.50;10.87;;;12.40;99.90;;;;;;5032618;28;20455;-79
2021/11/20 11:14:17;;;;;;;11.83;8.70;;;12.30;99.90;;;;;;5031964;28;20439;-80
2021/11/20 11:16:49;;;;;;;16.40;8.43;;;12.40;99.90;;;;;;5034184;28;20407;-79
2021/11/20 11:19:28;;;;;;;12.90;9.63;;;12.30;99.90;;;;;;5032593;28;20465;-79
2021/11/20 11:22:19;;;;;;;12.90;9.63;;;12.30;99.90;;;;;;5034349;28;20497;-79
2021/11/20 11:25:14;;;;;;;14.67;9.30;;;12.30;99.90;;;;;;5034941;28;20445;-79
2021/11/20 11:28:04;;;;;;;15.77;10.50;;;12.20;99.90;;;;;;5035845;28;20419;-80
2021/11/20 11:31:09;;;;;;;14.73;9.97;;;12.30;99.90;;;;;;5034704;28;20845;-80
2021/11/20 11:33:41;;;;;;;18.63;10.97;;;12.20;99.90;;;;;;5035562;28;20917;-81
2021/11/20 11:37:11;;;;;;;13.13;9.80;;;12.30;99.90;;;;;;5035078;28;20545;-81
2021/11/20 11:40:15;;;;;;;15.33;9.97;;;12.40;99.90;;;;;;5026231;28;20435;-79
2021/11/20 11:42:47;;;;;;;17.03;10.70;;;12.40;99.90;;;;;;5021649;28;20442;-81
2021/11/20 11:46:10;;;;;;;16.97;10.60;;;12.40;99.90;;;;;;5032899;28;20423;-79
2021/11/20 11:49:07;;;;;;;20.83;13.10;;;12.40;99.90;;;;;;5034196;28;20404;-81
2021/11/20 11:51:57;;;;;;;18.13;11.57;;;12.40;99.90;;;;;;5032678;28;20423;-79
2021/11/20 11:54:48;;;;;;;20.93;12.10;;;12.30;99.90;;;;;;5040818;23;20495;-80
2021/11/20 11:57:13;;;;;;;16.93;10.83;;;12.30;99.90;;;;;;5035784;28;20989;-80
2021/11/20 12:00:14;;;;;;;17.83;11.07;;;12.30;99.90;;;;;;5035250;28;20411;-81
2021/11/20 12:02:53;;;;;;;21.50;11.40;;;12.40;99.90;;;;;;5034326;28;20255;-79
2021/11/20 12:05:33;;;;;;;18.87;11.60;;;12.40;99.90;;;;;;5032709;28;20493;-79
2021/11/20 12:08:32;;;;;;;19.93;10.67;;;12.30;99.90;;;;;;5035188;28;20506;-80
2021/11/20 12:11:21;;;;;;;16.17;10.80;;;12.40;99.90;;;;;;5034142;28;20423;-81
2021/11/20 12:13:48;;;;;;;17.57;10.70;;;12.30;99.90;;;;;;5029622;28;20504;-81
2021/11/20 12:16:33;;;;;;;19.37;11.30;;;12.30;99.90;;;;;;5034605;28;20471;-81
2021/11/20 12:19:08;;;;;;;21.20;11.00;;;12.30;99.90;;;;;;5035727;28;20395;-80
2021/11/20 12:21:58;;;;;;;17.80;11.20;;;12.20;99.90;;;;;;5032948;28;20760;-81
2021/11/20 12:24:30;;;;;;;17.50;11.00;;;12.30;99.90;;;;;;5033457;28;20435;-81
2021/11/20 12:27:04;;;;;;;16.97;10.93;;;12.10;99.90;;;;;;5033204;28;20407;-80
2021/11/20 12:29:54;;;;;;;18.60;10.83;;;12.20;99.90;;;;;;5033146;28;20391;-80
2021/11/20 12:32:53;;;;;;;19.33;11.87;;;12.10;99.90;;;;;;5033036;28;20414;-81
2021/11/20 12:35:40;;;;;;;16.30;10.40;;;12.10;99.90;;;;;;5032979;28;20459;-79
2021/11/20 12:38:36;;;;;;;19.30;11.13;;;12.10;99.90;;;;;;5031901;28;20451;-80
2021/11/20 12:41:19;;;;;;;21.00;11.07;;;12.10;99.90;;;;;;5033206;28;20410;-81
2021/11/20 12:44:22;;;;;;;16.60;11.07;;;12.10;99.90;;;;;;5031431;28;20443;-79
2021/11/20 12:47:02;;;;;;;22.00;9.90;;;12.00;99.90;;;;;;5031648;28;20434;-79
2021/11/20 12:49:47;;;;;;;17.07;9.93;;;12.10;99.90;;;;;;5033025;28;20404;-79
2021/11/20 12:52:18;;;;;;;18.07;11.30;;;12.20;99.90;;;;;;5032564;28;20457;-79
2021/11/20 12:54:50;;;;;;;18.23;10.20;;;12.20;99.90;;;;;;5032090;28;20474;-79